Cold Spring, Massachusetts
Current Conditions -  °F | °C
As of 11:31 AM on Friday 21 Nov 2014 (Local Time) from KPSF Reporting Station
Light Snow Light Snow  
Wind Chill:   Ceiling: 2500
Heat Index: 24°   Visibility: 2mi
Dew Point: 15°   Wind: 24mph
Humidity: 69%   Direction: 290°WNW
Pressure: 30.12"   Gusts: 32mph
Location:  42.2038°N, 73.0917°W
Report Text: KPSF 211631Z AUTO 29021G28KT 2SM -SN BKN025 OVC033 M04/M09 A3012 RMK AO2 PK WND 28029/1620 P0000 T10441094
Loading
Personal Weather Stations






























Interactive Weather Map New forecast layout! Learn more

10-Day Weather Forecast

Advertisements
Track Severe Weather on mobile